Time;durP1;ratioP1;P1;durP2;ratioP2;P2;SDS_P1;SDS_P2;PMS_P1;PMS_P2;Temp;Humidity;BMP_temperature;BMP_pressure;BME280_temperature;BME280_humidity;BME280_pressure;Samples;Min_cycle;Max_cycle;Signal;HPM_P1;HPM_P2
2023/06/09 00:00:07;;;;;;;;;;;;;;;19.17;37.79;100812.77;105480;1299;72655;-86
2023/06/09 00:02:53;;;;;;;;;;;;;;;19.15;37.81;100815.52;105479;1297;60217;-86
2023/06/09 00:05:40;;;;;;;;;;;;;;;19.07;37.86;100810.81;105360;1297;59446;-86
2023/06/09 00:08:26;;;;;;;;;;;;;;;18.97;37.89;100815.32;105415;1297;73516;-86
2023/06/09 00:11:12;;;;;;;;;;;;;;;18.75;37.88;100826.84;105504;1300;68054;-85
2023/06/09 00:13:58;;;;;;;;;;;;;;;18.52;38.21;100817.77;105523;1297;70436;-86
2023/06/09 00:16:46;;;;;;;;;;;;;;;18.51;38.34;100814.83;105508;1297;58948;-86
2023/06/09 00:19:32;;;;;;;;;;;;;;;18.54;38.29;100810.50;105472;1297;59170;-85
2023/06/09 00:22:19;;;;;;;;;;;;;;;18.52;38.51;100811.48;105311;1297;74436;-85
2023/06/09 00:25:06;;;;;;;;;;;;;;;18.48;38.50;100818.61;105493;1298;68882;-85
2023/06/09 00:27:52;;;;;;;;;;;;;;;18.28;38.50;100825.64;105516;1297;71392;-85
2023/06/09 00:30:37;;;;;;;;;;;;;;;18.17;38.78;100820.05;105502;1299;58870;-85
2023/06/09 00:33:23;;;;;;;;;;;;;;;18.17;38.76;100827.02;105496;1299;60521;-85
2023/06/09 00:36:10;;;;;;;;;;;;;;;18.11;38.88;100830.27;105502;1297;73511;-84
2023/06/09 00:38:56;;;;;;;;;;;;;;;18.05;38.97;100829.30;105577;1297;67440;-85
2023/06/09 00:41:42;;;;;;;;;;;;;;;18.04;39.08;100829.88;105619;1296;71421;-85
2023/06/09 00:44:27;;;;;;;;;;;;;;;17.97;39.05;100832.10;105601;1297;59452;-85
2023/06/09 00:47:13;;;;;;;;;;;;;;;17.80;39.29;100832.31;105513;1296;58956;-85
2023/06/09 00:49:59;;;;;;;;;;;;;;;17.76;39.51;100829.66;105441;1296;74614;-85
2023/06/09 00:52:46;;;;;;;;;;;;;;;17.83;39.53;100824.48;105577;1297;68502;-85
2023/06/09 00:55:33;;;;;;;;;;;;;;;17.88;39.47;100822.72;105494;1297;70330;-85
2023/06/09 00:58:19;;;;;;;;;;;;;;;17.85;39.63;100819.00;105441;1297;59008;-85
2023/06/09 01:01:05;;;;;;;;;;;;;;;17.80;39.63;100819.02;105536;1299;59567;-85
2023/06/09 01:03:52;;;;;;;;;;;;;;;17.79;39.72;100822.02;105563;1297;74523;-85
2023/06/09 01:06:56;;;;;;;;;;;;;;;17.67;39.68;100821.52;105495;1298;67591;-85
2023/06/09 01:09:45;;;;;;;;;;;;;;;17.64;39.87;100822.69;105511;1298;71700;-85
2023/06/09 01:12:35;;;;;;;;;;;;;;;17.62;39.99;100822.95;105519;1297;58967;-85
2023/06/09 01:15:23;;;;;;;;;;;;;;;17.62;40.09;100824.33;105540;1297;59967;-85
2023/06/09 01:18:13;;;;;;;;;;;;;;;17.63;40.13;100823.42;105557;1297;73141;-85
2023/06/09 01:21:06;;;;;;;;;;;;;;;17.61;40.13;100820.35;105609;1297;68658;-85
2023/06/09 01:24:16;;;;;;;;;;;;;;;17.53;40.09;100821.39;105441;1296;164249;-85
2023/06/09 01:27:03;;;;;;;;;;;;;;;17.49;40.28;100821.72;105561;1297;59000;-85
2023/06/09 01:29:51;;;;;;;;;;;;;;;17.39;40.29;100823.73;105591;1296;59488;-85
2023/06/09 01:32:38;;;;;;;;;;;;;;;17.27;40.37;100820.56;105604;1297;74045;-85
2023/06/09 01:35:25;;;;;;;;;;;;;;;17.18;40.49;100822.13;105564;1296;68660;-86
2023/06/09 01:38:12;;;;;;;;;;;;;;;17.15;40.58;100821.20;105458;1297;72615;-85
2023/06/09 01:40:58;;;;;;;;;;;;;;;17.13;40.74;100824.97;105525;1297;59047;-85
2023/06/09 01:43:44;;;;;;;;;;;;;;;17.14;40.79;100823.37;105439;1297;59663;-85
2023/06/09 01:46:30;;;;;;;;;;;;;;;17.16;40.81;100828.15;105555;1297;72546;-85
2023/06/09 01:49:20;;;;;;;;;;;;;;;17.17;40.83;100827.91;105457;1297;67329;-85
2023/06/09 01:52:16;;;;;;;;;;;;;;;17.10;40.88;100828.57;105517;1297;72474;-85
2023/06/09 01:55:17;;;;;;;;;;;;;;;17.06;40.94;100824.38;105501;1299;59106;-85
2023/06/09 01:58:06;;;;;;;;;;;;;;;17.04;41.05;100827.59;105407;1297;58950;-85
2023/06/09 02:00:53;;;;;;;;;;;;;;;16.98;41.14;100825.90;105510;1299;73837;-85
2023/06/09 02:03:40;;;;;;;;;;;;;;;16.94;41.19;100825.55;105467;1297;67719;-85
2023/06/09 02:06:27;;;;;;;;;;;;;;;16.87;41.32;100826.17;105544;1297;72407;-85
2023/06/09 02:09:13;;;;;;;;;;;;;;;16.84;41.32;100822.10;105484;1299;58954;-85
2023/06/09 02:11:59;;;;;;;;;;;;;;;16.78;41.40;100819.20;105521;1296;59014;-85
2023/06/09 02:14:45;;;;;;;;;;;;;;;16.73;41.55;100818.89;105530;1299;74010;-85
2023/06/09 02:17:34;;;;;;;;;;;;;;;16.65;41.59;100819.70;105474;1300;68674;-85
2023/06/09 02:20:22;;;;;;;;;;;;;;;16.53;41.58;100817.52;105445;1300;72170;-85
2023/06/09 02:23:08;;;;;;;;;;;;;;;16.47;41.79;100816.20;105508;1297;59066;-85
2023/06/09 02:25:54;;;;;;;;;;;;;;;16.48;41.77;100817.89;105517;1299;58954;-87
2023/06/09 02:28:40;;;;;;;;;;;;;;;16.47;41.84;100820.87;105500;1299;74418;-85
2023/06/09 02:31:26;;;;;;;;;;;;;;;16.47;42.03;100818.08;105581;1297;67201;-86
2023/06/09 02:34:12;;;;;;;;;;;;;;;16.48;42.05;100822.25;105611;1297;71598;-85
2023/06/09 02:36:59;;;;;;;;;;;;;;;16.45;42.00;100822.52;105535;1297;59063;-86
2023/06/09 02:39:45;;;;;;;;;;;;;;;16.43;42.15;100823.46;105515;1297;58653;-85
2023/06/09 02:42:30;;;;;;;;;;;;;;;16.37;42.06;100823.68;105547;1297;72428;-86
2023/06/09 02:45:16;;;;;;;;;;;;;;;16.33;42.17;100827.30;105505;1298;68781;-85
2023/06/09 02:48:02;;;;;;;;;;;;;;;16.28;42.32;100827.84;105499;1297;71179;-85
2023/06/09 02:50:48;;;;;;;;;;;;;;;16.23;42.52;100824.38;105448;1297;59058;-85
2023/06/09 02:53:34;;;;;;;;;;;;;;;16.20;42.64;100823.61;105531;1297;59433;-85
2023/06/09 02:56:20;;;;;;;;;;;;;;;16.19;42.70;100822.25;105523;1299;73491;-85
2023/06/09 02:59:07;;;;;;;;;;;;;;;16.20;42.67;100823.61;105513;1299;68919;-85
2023/06/09 03:01:53;;;;;;;;;;;;;;;16.17;42.81;100820.91;105536;1298;71421;-85
2023/06/09 03:04:40;;;;;;;;;;;;;;;16.12;42.74;100824.39;105420;1297;58810;-85
2023/06/09 03:07:26;;;;;;;;;;;;;;;16.06;42.95;100823.27;105414;1299;60175;-85
2023/06/09 03:10:12;;;;;;;;;;;;;;;16.07;42.96;100819.42;105427;1299;74829;-85
2023/06/09 03:12:57;;;;;;;;;;;;;;;16.09;43.06;100822.30;105485;1297;68403;-85
2023/06/09 03:15:44;;;;;;;;;;;;;;;16.12;43.06;100822.02;105430;1299;71153;-85
2023/06/09 03:18:29;;;;;;;;;;;;;;;16.08;42.99;100823.90;105519;1298;59315;-85
2023/06/09 03:21:15;;;;;;;;;;;;;;;16.04;43.20;100822.81;105511;1300;58991;-85
2023/06/09 03:24:05;;;;;;;;;;;;;;;16.05;43.31;100817.23;105497;1299;73434;-85
2023/06/09 03:26:52;;;;;;;;;;;;;;;16.07;43.26;100820.61;105417;1297;68564;-85
2023/06/09 03:29:38;;;;;;;;;;;;;;;16.08;43.31;100823.55;105542;1298;71199;-86
2023/06/09 03:32:24;;;;;;;;;;;;;;;16.10;43.44;100823.83;105354;1300;59061;-85
2023/06/09 03:35:10;;;;;;;;;;;;;;;16.14;43.61;100831.14;105465;1297;59095;-85
2023/06/09 03:37:56;;;;;;;;;;;;;;;16.19;43.63;100832.33;105445;1299;74070;-85
2023/06/09 03:40:42;;;;;;;;;;;;;;;16.26;43.70;100834.52;105556;1298;67399;-85
2023/06/09 03:43:28;;;;;;;;;;;;;;;16.26;43.83;100836.42;105427;1297;71096;-85
2023/06/09 03:46:14;;;;;;;;;;;;;;;16.22;43.88;100840.23;105384;1298;58874;-85
2023/06/09 03:49:00;;;;;;;;;;;;;;;16.19;44.04;100842.27;105533;1298;59169;-85
2023/06/09 03:51:46;;;;;;;;;;;;;;;16.17;44.35;100839.19;105471;1300;73370;-85
2023/06/09 03:54:33;;;;;;;;;;;;;;;16.27;44.38;100837.81;105520;1297;67155;-86
2023/06/09 03:57:20;;;;;;;;;;;;;;;16.35;44.41;100844.63;105444;1299;70832;-85
2023/06/09 04:00:06;;;;;;;;;;;;;;;16.42;44.44;100846.48;105517;1297;58762;-86
2023/06/09 04:02:52;;;;;;;;;;;;;;;16.51;44.53;100845.25;105466;1297;59084;-87
2023/06/09 04:05:38;;;;;;;;;;;;;;;16.60;44.47;100842.86;105517;1298;72506;-86
2023/06/09 04:08:25;;;;;;;;;;;;;;;16.77;44.69;100850.22;105458;1297;68379;-85
2023/06/09 04:11:11;;;;;;;;;;;;;;;16.98;44.63;100849.61;105530;1297;71765;-85
2023/06/09 04:13:57;;;;;;;;;;;;;;;17.12;44.68;100850.27;105485;1296;59140;-85
2023/06/09 04:16:43;;;;;;;;;;;;;;;17.21;44.69;100852.13;105490;1300;59433;-85
2023/06/09 04:19:29;;;;;;;;;;;;;;;17.37;44.76;100851.54;105480;1298;75551;-86
2023/06/09 04:22:14;;;;;;;;;;;;;;;17.48;44.84;100847.38;105520;1299;67259;-85
2023/06/09 04:25:01;;;;;;;;;;;;;;;17.56;44.72;100848.48;105486;1298;71135;-86
2023/06/09 04:27:48;;;;;;;;;;;;;;;17.63;44.71;100848.00;105506;1297;58993;-86
2023/06/09 04:30:35;;;;;;;;;;;;;;;17.71;44.92;100850.46;105468;1297;60539;-87
2023/06/09 04:33:23;;;;;;;;;;;;;;;17.82;45.06;100850.71;105484;1297;75122;-87
2023/06/09 04:36:10;;;;;;;;;;;;;;;17.96;45.17;100851.52;105467;1299;68563;-87
2023/06/09 04:38:57;;;;;;;;;;;;;;;18.11;45.08;100851.89;105487;1302;72538;-87
2023/06/09 04:41:44;;;;;;;;;;;;;;;18.28;45.03;100853.59;105470;1297;59221;-88
2023/06/09 04:44:32;;;;;;;;;;;;;;;18.44;44.90;100854.60;105534;1297;59278;-88
2023/06/09 04:47:18;;;;;;;;;;;;;;;18.61;44.95;100856.12;105537;1299;75146;-88
2023/06/09 04:50:05;;;;;;;;;;;;;;;18.78;45.04;100863.34;105429;1300;66202;-88
2023/06/09 05:00:37;;;;;;;;;;;;;;;;;;;;;
2023/06/09 05:07:42;;;;;;;;;;;;;;;;;;;;;
2023/06/09 05:18:08;;;;;;;;;;;;;;;22.42;44.60;100867.59;103214;1323;60059;-86
2023/06/09 05:21:17;;;;;;;;;;;;;;;;;;;;;
2023/06/09 05:27:45;;;;;;;;;;;;;;;24.57;43.81;100877.09;102830;1330;71295;-87
2023/06/09 05:30:50;;;;;;;;;;;;;;;25.22;43.46;100882.13;102973;1326;59266;-86
2023/06/09 05:33:47;;;;;;;;;;;;;;;25.75;43.33;100884.23;102984;1326;60145;-86
2023/06/09 05:36:44;;;;;;;;;;;;;;;26.29;43.09;100883.09;103051;1318;74507;-86
2023/06/09 05:39:30;;;;;;;;;;;;;;;26.82;42.76;100880.99;103557;1317;66546;-86
2023/06/09 05:42:16;;;;;;;;;;;;;;;27.21;42.67;100886.14;103632;1317;73074;-86
2023/06/09 05:45:02;;;;;;;;;;;;;;;27.56;42.42;100882.90;104011;1312;58934;-86
2023/06/09 05:47:50;;;;;;;;;;;;;;;27.83;42.23;100893.61;104274;1311;59836;-86
2023/06/09 05:50:37;;;;;;;;;;;;;;;28.11;42.05;100893.46;104325;1305;74464;-86
2023/06/09 05:53:23;;;;;;;;;;;;;;;28.38;41.69;100895.67;104710;1309;67253;-86
2023/06/09 05:56:07;;;;;;;;;;;;;;;28.79;41.49;100897.71;104706;1305;71411;-86
2023/06/09 05:58:52;;;;;;;;;;;;;;;29.21;41.26;100900.52;105333;1300;59063;-86
2023/06/09 06:01:36;;;;;;;;;;;;;;;29.59;41.08;100901.67;105365;1298;60669;-86
2023/06/09 06:04:20;;;;;;;;;;;;;;;29.98;40.98;100908.38;105460;1297;74423;-86
2023/06/09 06:07:04;;;;;;;;;;;;;;;30.29;40.44;100908.25;105337;1303;66288;-86
2023/06/09 06:09:48;;;;;;;;;;;;;;;30.57;40.45;100910.97;105395;1299;71411;-86
2023/06/09 06:12:32;;;;;;;;;;;;;;;30.79;40.10;100909.23;105444;1299;59035;-86
2023/06/09 06:15:16;;;;;;;;;;;;;;;31.00;39.94;100907.85;105321;1299;59840;-86
2023/06/09 06:18:00;;;;;;;;;;;;;;;31.10;39.69;100908.34;105381;1302;74592;-86
2023/06/09 06:20:44;;;;;;;;;;;;;;;31.33;39.33;100906.18;105402;1297;69033;-86
2023/06/09 06:23:28;;;;;;;;;;;;;;;31.64;39.21;100908.98;105368;1299;71145;-86
2023/06/09 06:26:12;;;;;;;;;;;;;;;32.13;38.89;100905.14;105427;1301;59430;-87
2023/06/09 06:28:56;;;;;;;;;;;;;;;32.63;38.33;100904.70;105363;1299;59907;-86
2023/06/09 06:31:40;;;;;;;;;;;;;;;33.12;38.07;100908.97;105369;1300;74372;-86
2023/06/09 06:34:25;;;;;;;;;;;;;;;33.65;37.74;100910.33;105305;1298;68047;-86
2023/06/09 06:37:09;;;;;;;;;;;;;;;34.13;37.44;100910.82;105469;1301;72724;-87
2023/06/09 06:39:54;;;;;;;;;;;;;;;34.69;37.05;100910.60;105458;1302;58968;-86
2023/06/09 06:42:38;;;;;;;;;;;;;;;35.25;36.81;100908.69;105532;1299;59985;-86
2023/06/09 06:45:22;;;;;;;;;;;;;;;35.71;36.21;100908.55;105502;1297;74575;-84
2023/06/09 06:48:08;;;;;;;;;;;;;;;36.36;36.31;100909.42;105209;1303;296400;-84
2023/06/09 06:50:55;;;;;;;;;;;;;;;36.55;35.77;100911.05;105559;1299;71285;-84
2023/06/09 06:53:40;;;;;;;;;;;;;;;36.71;35.71;100908.00;105482;1298;59442;-86
2023/06/09 06:56:26;;;;;;;;;;;;;;;36.95;35.26;100909.66;105470;1299;59257;-86
2023/06/09 06:59:12;;;;;;;;;;;;;;;36.88;35.19;100910.05;105420;1298;73424;-86
2023/06/09 07:01:58;;;;;;;;;;;;;;;37.34;34.67;100915.29;105330;1299;67490;-87
2023/06/09 07:04:44;;;;;;;;;;;;;;;38.00;33.96;100917.64;105509;1297;70727;-87
2023/06/09 07:07:30;;;;;;;;;;;;;;;38.68;33.13;100914.42;105481;1298;59830;-87
2023/06/09 07:10:16;;;;;;;;;;;;;;;39.33;32.46;100914.02;105548;1298;58969;-87
2023/06/09 07:13:02;;;;;;;;;;;;;;;39.91;32.34;100917.77;105522;1298;73576;-86
2023/06/09 07:15:48;;;;;;;;;;;;;;;40.66;31.96;100916.77;105526;1297;67920;-86
2023/06/09 07:18:33;;;;;;;;;;;;;;;41.34;31.54;100917.48;105523;1299;72293;-86
2023/06/09 07:21:19;;;;;;;;;;;;;;;41.82;30.87;100913.62;105486;1297;59101;-86
2023/06/09 07:24:06;;;;;;;;;;;;;;;41.56;30.75;100912.29;105366;1298;59627;-86
2023/06/09 07:26:53;;;;;;;;;;;;;;;40.60;31.08;100907.85;105373;1303;72974;-86
2023/06/09 07:29:41;;;;;;;;;;;;;;;39.90;30.80;100906.70;105467;1297;67490;-86
2023/06/09 07:32:27;;;;;;;;;;;;;;;40.01;30.50;100907.31;105577;1300;71170;-86
2023/06/09 07:35:13;;;;;;;;;;;;;;;39.64;29.82;100905.15;105535;1297;59292;-86
2023/06/09 07:38:00;;;;;;;;;;;;;;;38.83;29.60;100903.26;105506;1297;60471;-87
2023/06/09 07:40:46;;;;;;;;;;;;;;;38.37;29.53;100900.66;105534;1297;74321;-86
2023/06/09 07:43:32;;;;;;;;;;;;;;;38.75;29.27;100898.33;105519;1297;68182;-86
2023/06/09 07:46:18;;;;;;;;;;;;;;;40.17;28.44;100901.86;105435;1300;71174;-86
2023/06/09 07:49:04;;;;;;;;;;;;;;;41.49;27.98;100902.30;105348;1297;59178;-86
2023/06/09 07:51:50;;;;;;;;;;;;;;;42.54;27.58;100901.47;105410;1300;59679;-86
2023/06/09 07:54:36;;;;;;;;;;;;;;;43.49;27.00;100900.91;105565;1297;73865;-86
2023/06/09 07:57:22;;;;;;;;;;;;;;;44.34;26.77;100903.14;105544;1297;67467;-86
2023/06/09 08:00:09;;;;;;;;;;;;;;;45.20;26.09;100907.20;105526;1297;71368;-86
2023/06/09 08:03:04;;;;;;;;;;;;;;;45.82;25.92;100905.13;105410;1297;59136;-87
2023/06/09 08:05:50;;;;;;;;;;;;;;;46.33;25.53;100907.78;105335;1297;59124;-86
2023/06/09 08:08:37;;;;;;;;;;;;;;;47.17;25.39;100903.02;105429;1299;65653;-85
2023/06/09 08:11:24;;;;;;;;;;;;;;;47.92;25.09;100900.94;105388;1297;59906;-86
2023/06/09 08:14:09;;;;;;;;;;;;;;;48.47;24.58;100902.77;105437;1300;62849;-87
2023/06/09 08:16:55;;;;;;;;;;;;;;;48.76;24.13;100898.42;105421;1297;59381;-86
2023/06/09 08:19:41;;;;;;;;;;;;;;;49.15;23.94;100899.32;105403;1300;59729;-86
2023/06/09 08:22:27;;;;;;;;;;;;;;;49.60;23.74;100900.32;105504;1297;64773;-86
2023/06/09 08:25:13;;;;;;;;;;;;;;;49.88;23.32;100898.84;105476;1297;60104;-86
2023/06/09 08:27:59;;;;;;;;;;;;;;;50.31;23.01;100897.00;105450;1297;62777;-87
2023/06/09 08:30:45;;;;;;;;;;;;;;;50.64;22.67;100906.38;105417;1297;59204;-86
2023/06/09 08:33:35;;;;;;;;;;;;;;;50.71;22.24;100901.16;105415;1300;59403;-86
2023/06/09 08:36:20;;;;;;;;;;;;;;;50.88;22.00;100899.61;105420;1297;65279;-86
2023/06/09 08:39:06;;;;;;;;;;;;;;;51.08;21.55;100899.80;105423;1297;59681;-87
2023/06/09 08:41:53;;;;;;;;;;;;;;;51.06;21.13;100898.71;105395;1297;63812;-86
2023/06/09 08:44:42;;;;;;;;;;;;;;;51.28;21.00;100893.64;105429;1297;59129;-86
2023/06/09 08:47:26;;;;;;;;;;;;;;;51.63;20.73;100888.09;105446;1297;58820;-86
2023/06/09 08:50:11;;;;;;;;;;;;;;;51.77;20.32;100884.25;104870;1305;65307;-86
2023/06/09 08:52:56;;;;;;;;;;;;;;;51.58;19.56;100885.59;104947;1297;60723;-86
2023/06/09 08:55:40;;;;;;;;;;;;;;;50.94;19.37;100886.95;105342;1298;63945;-86
2023/06/09 08:58:24;;;;;;;;;;;;;;;50.02;19.03;100886.91;105324;1297;59525;-86
2023/06/09 09:01:08;;;;;;;;;;;;;;;47.38;19.08;100887.61;105425;1296;59130;-86
2023/06/09 09:03:53;;;;;;;;;;;;;;;44.37;19.47;100883.55;105273;1300;72895;-86
2023/06/09 09:06:37;;;;;;;;;;;;;;;42.30;19.47;100875.66;105381;1297;68633;-86
2023/06/09 09:09:21;;;;;;;;;;;;;;;40.47;19.52;100874.36;105284;1301;72499;-85
2023/06/09 09:12:05;;;;;;;;;;;;;;;39.00;19.79;100867.48;105327;1297;59408;-85
2023/06/09 09:14:49;;;;;;;;;;;;;;;37.95;19.73;100863.63;105428;1297;59997;-85
2023/06/09 09:17:33;;;;;;;;;;;;;;;36.98;19.67;100864.98;105368;1297;73175;-85
2023/06/09 09:20:18;;;;;;;;;;;;;;;35.90;19.65;100862.89;105312;1298;67448;-85
2023/06/09 09:23:04;;;;;;;;;;;;;;;35.04;19.86;100860.72;105445;1297;71393;-85
2023/06/09 09:25:48;;;;;;;;;;;;;;;34.24;20.14;100861.80;105326;1298;59146;-84
2023/06/09 09:28:39;;;;;;;;;;;;;;;33.62;20.06;100862.63;105430;1300;60000;-84
2023/06/09 09:31:33;;;;;;;;;;;;;;;33.14;20.24;100862.00;105426;1296;73426;-84
2023/06/09 09:34:19;;;;;;;;;;;;;;;32.59;20.41;100857.67;105442;1299;67531;-84
2023/06/09 09:37:06;;;;;;;;;;;;;;;32.28;20.47;100854.83;105413;1297;72150;-84
2023/06/09 09:39:50;;;;;;;;;;;;;;;32.01;20.46;100854.79;105390;1297;59202;-84
2023/06/09 09:42:50;;;;;;;;;;;;;;;31.76;20.52;100853.77;105489;1298;59982;-85
2023/06/09 09:45:43;;;;;;;;;;;;;;;31.54;20.93;100851.76;105437;1297;73524;-84
2023/06/09 09:48:37;;;;;;;;;;;;;;;31.38;20.93;100850.87;105316;1297;68415;-84
2023/06/09 09:51:21;;;;;;;;;;;;;;;31.12;21.13;100849.05;105314;1297;71380;-84
2023/06/09 09:54:10;;;;;;;;;;;;;;;30.96;21.41;100849.12;105282;1303;59251;-84
2023/06/09 09:56:58;;;;;;;;;;;;;;;30.83;21.58;100848.58;105294;1297;59496;-85
2023/06/09 09:59:42;;;;;;;;;;;;;;;30.71;21.59;100849.07;105336;1297;74448;-84
2023/06/09 10:02:29;;;;;;;;;;;;;;;30.54;21.86;100849.16;105211;1298;67404;-84
2023/06/09 10:05:16;;;;;;;;;;;;;;;30.34;21.91;100840.55;105291;1297;71513;-84
2023/06/09 10:08:02;;;;;;;;;;;;;;;30.17;22.29;100841.19;105318;1298;59352;-84
2023/06/09 10:10:47;;;;;;;;;;;;;;;30.12;22.14;100845.91;105220;1297;59437;-84
2023/06/09 10:13:31;;;;;;;;;;;;;;;30.11;22.13;100845.30;105313;1300;74317;-84
2023/06/09 10:16:16;;;;;;;;;;;;;;;30.05;22.32;100842.50;105299;1297;66717;-84
2023/06/09 10:19:02;;;;;;;;;;;;;;;29.99;22.21;100843.23;105318;1297;70500;-84
2023/06/09 10:21:49;;;;;;;;;;;;;;;30.06;22.50;100837.76;105271;1297;59150;-84
2023/06/09 10:24:58;;;;;;;;;;;;;;;30.01;22.51;100836.11;105304;1300;60003;-84
2023/06/09 10:27:48;;;;;;;;;;;;;;;29.96;22.69;100835.45;105352;1297;74611;-86
2023/06/09 10:30:37;;;;;;;;;;;;;;;29.87;22.75;100838.13;105296;1297;69058;-87
2023/06/09 10:33:57;;;;;;;;;;;;;;;29.67;22.82;100830.79;105411;1297;70758;-86
2023/06/09 10:36:52;;;;;;;;;;;;;;;29.51;22.98;100826.53;105314;1299;59494;-87
2023/06/09 10:40:03;;;;;;;;;;;;;;;29.49;23.02;100818.23;105431;1297;58975;-86
2023/06/09 10:43:10;;;;;;;;;;;;;;;29.55;23.20;100813.24;105318;1299;73443;-86
2023/06/09 10:45:56;;;;;;;;;;;;;;;29.58;23.15;100814.18;105389;1297;67482;-86
2023/06/09 10:48:48;;;;;;;;;;;;;;;29.63;23.22;100813.52;105328;1297;71901;-86
2023/06/09 10:51:34;;;;;;;;;;;;;;;29.67;23.31;100807.15;105287;1297;59009;-86
2023/06/09 10:54:41;;;;;;;;;;;;;;;29.63;23.39;100807.98;105406;1297;59454;-87
2023/06/09 11:04:49;;;;;;;;;;;;;;;;;;;;;
2023/06/09 11:08:03;;;;;;;;;;;;;;;29.66;23.88;100801.52;104894;1303;58719;-86
2023/06/09 11:11:02;;;;;;;;;;;;;;;29.75;23.86;100796.59;104903;1304;60005;-86
2023/06/09 11:13:54;;;;;;;;;;;;;;;29.75;23.95;100793.92;104956;1306;75371;-86
2023/06/09 11:17:17;;;;;;;;;;;;;;;29.81;23.93;100787.15;104815;1306;68586;-86
2023/06/09 11:20:15;;;;;;;;;;;;;;;29.88;23.84;100789.16;104072;1314;72059;-86
2023/06/09 11:23:16;;;;;;;;;;;;;;;29.91;23.95;100783.83;104850;1303;59180;-87
2023/06/09 11:26:18;;;;;;;;;;;;;;;29.83;23.98;100785.65;104806;1303;60033;-86
2023/06/09 11:29:21;;;;;;;;;;;;;;;29.84;24.28;100774.73;104947;1303;73387;-86
2023/06/09 11:32:23;;;;;;;;;;;;;;;;;;;;;
2023/06/09 11:35:10;;;;;;;;;;;;;;;30.12;24.37;100771.55;104836;1303;72559;-86
2023/06/09 11:38:07;;;;;;;;;;;;;;;30.21;24.35;100773.88;104892;1306;59945;-86
2023/06/09 11:40:59;;;;;;;;;;;;;;;30.22;24.15;100775.23;104882;1306;59385;-86
2023/06/09 11:43:57;;;;;;;;;;;;;;;30.15;24.05;100775.70;105319;1297;74623;-86
2023/06/09 11:46:43;;;;;;;;;;;;;;;29.95;23.92;100769.77;105302;1298;68584;-85
2023/06/09 11:49:29;;;;;;;;;;;;;;;29.82;24.33;100768.74;105316;1297;73196;-86
2023/06/09 11:52:16;;;;;;;;;;;;;;;29.82;24.38;100761.41;105379;1295;58697;-86
2023/06/09 11:55:03;;;;;;;;;;;;;;;29.84;24.29;100755.94;105426;1297;59465;-87
2023/06/09 11:57:49;;;;;;;;;;;;;;;29.85;24.43;100750.11;105407;1297;74686;-87
2023/06/09 12:00:42;;;;;;;;;;;;;;;29.81;24.16;100760.83;105412;1297;69205;-87
2023/06/09 12:03:28;;;;;;;;;;;;;;;29.76;24.20;100756.18;105341;1297;71525;-87
2023/06/09 12:06:16;;;;;;;;;;;;;;;29.73;24.15;100756.59;105333;1297;59158;-87
2023/06/09 12:09:18;;;;;;;;;;;;;;;29.82;24.32;100748.27;105412;1297;59591;-87
2023/06/09 12:12:05;;;;;;;;;;;;;;;29.89;24.36;100745.14;105323;1297;73423;-87
2023/06/09 12:14:51;;;;;;;;;;;;;;;29.92;24.42;100739.71;105391;1297;67927;-87
2023/06/09 12:17:37;;;;;;;;;;;;;;;29.94;24.39;100739.45;105432;1297;70896;-87
2023/06/09 12:20:27;;;;;;;;;;;;;;;29.99;24.45;100744.17;105408;1296;59130;-87
2023/06/09 12:23:14;;;;;;;;;;;;;;;30.02;24.45;100739.48;105335;1300;59741;-87
2023/06/09 12:26:05;;;;;;;;;;;;;;;30.10;24.55;100735.91;105297;1297;73374;-87
2023/06/09 12:28:54;;;;;;;;;;;;;;;30.22;24.39;100737.81;105298;1300;67505;-87
2023/06/09 12:31:44;;;;;;;;;;;;;;;30.29;24.53;100732.39;105271;1297;72586;-87
2023/06/09 12:34:30;;;;;;;;;;;;;;;30.34;24.27;100727.65;105362;1298;59056;-87
2023/06/09 12:37:16;;;;;;;;;;;;;;;30.31;24.34;100733.11;105367;1296;59952;-87
2023/06/09 12:40:03;;;;;;;;;;;;;;;30.28;24.36;100729.80;105318;1297;73424;-87
2023/06/09 12:42:49;;;;;;;;;;;;;;;30.22;24.44;100727.54;105343;1297;67423;-87
2023/06/09 12:45:35;;;;;;;;;;;;;;;30.18;24.58;100730.23;105418;1296;71522;-87
2023/06/09 12:48:21;;;;;;;;;;;;;;;30.22;24.60;100730.94;105423;1297;59531;-87
2023/06/09 12:51:07;;;;;;;;;;;;;;;30.21;24.61;100728.86;105414;1297;60256;-87
2023/06/09 12:53:54;;;;;;;;;;;;;;;30.17;24.66;100724.34;105414;1296;73932;-87
2023/06/09 12:56:40;;;;;;;;;;;;;;;30.15;24.80;100727.02;105464;1296;68330;-87
2023/06/09 12:59:26;;;;;;;;;;;;;;;30.07;24.68;100728.52;105438;1297;71843;-87
2023/06/09 13:02:12;;;;;;;;;;;;;;;29.95;24.71;100731.42;105479;1296;59493;-88
2023/06/09 13:04:58;;;;;;;;;;;;;;;29.91;24.72;100730.20;105452;1296;60343;-87
2023/06/09 13:07:44;;;;;;;;;;;;;;;29.89;24.92;100729.88;105441;1296;73423;-87
2023/06/09 13:10:30;;;;;;;;;;;;;;;29.92;25.12;100727.73;105304;1300;67259;-87
2023/06/09 13:13:16;;;;;;;;;;;;;;;30.02;25.09;100725.91;105399;1297;71879;-87
2023/06/09 13:16:02;;;;;;;;;;;;;;;30.11;25.09;100722.60;105271;1298;59037;-87
2023/06/09 13:18:48;;;;;;;;;;;;;;;30.15;25.11;100723.40;105407;1296;59908;-87
2023/06/09 13:21:34;;;;;;;;;;;;;;;30.21;25.18;100721.98;105490;1297;74005;-87
2023/06/09 13:24:20;;;;;;;;;;;;;;;30.24;25.07;100719.02;105468;1297;67866;-87
2023/06/09 13:27:06;;;;;;;;;;;;;;;30.22;25.03;100715.23;105434;1297;73045;-87
2023/06/09 13:29:52;;;;;;;;;;;;;;;30.18;25.06;100717.48;105386;1296;59447;-87
2023/06/09 13:32:38;;;;;;;;;;;;;;;30.12;25.16;100718.77;105353;1297;59635;-87
2023/06/09 13:35:24;;;;;;;;;;;;;;;30.05;25.28;100714.96;105516;1297;74881;-88
2023/06/09 13:38:10;;;;;;;;;;;;;;;30.00;25.34;100712.11;105491;1297;68551;-88
2023/06/09 13:40:56;;;;;;;;;;;;;;;29.92;25.24;100712.32;105459;1297;71374;-87
2023/06/09 13:43:42;;;;;;;;;;;;;;;29.84;25.25;100707.91;105424;1297;59793;-87
2023/06/09 13:46:28;;;;;;;;;;;;;;;29.74;25.25;100705.73;105289;1297;59412;-87
2023/06/09 13:49:14;;;;;;;;;;;;;;;29.63;25.60;100700.71;105436;1297;75090;-88
2023/06/09 13:51:59;;;;;;;;;;;;;;;29.57;25.45;100695.61;105406;1299;69421;-88
2023/06/09 13:54:45;;;;;;;;;;;;;;;29.56;25.65;100700.27;105414;1300;72852;-87
2023/06/09 13:57:31;;;;;;;;;;;;;;;29.59;25.64;100698.08;105374;1297;59332;-87
2023/06/09 14:00:17;;;;;;;;;;;;;;;29.55;25.65;100698.59;105440;1297;59324;-88
2023/06/09 14:03:03;;;;;;;;;;;;;;;29.50;25.64;100693.96;105419;1297;73044;-88
2023/06/09 14:05:49;;;;;;;;;;;;;;;29.47;25.67;100694.82;105335;1299;68680;-89
2023/06/09 14:08:35;;;;;;;;;;;;;;;29.46;25.79;100688.48;105432;1296;72481;-88
2023/06/09 14:11:21;;;;;;;;;;;;;;;29.49;25.66;100691.39;105371;1296;59300;-87
2023/06/09 14:14:07;;;;;;;;;;;;;;;29.52;25.85;100684.58;105384;1298;59152;-87
2023/06/09 14:16:53;;;;;;;;;;;;;;;29.54;25.69;100690.73;105212;1297;73319;-86
2023/06/09 14:19:39;;;;;;;;;;;;;;;29.53;25.63;100690.09;105277;1301;68063;-87
2023/06/09 14:22:25;;;;;;;;;;;;;;;29.50;25.59;100678.68;105325;1298;72559;-86
2023/06/09 14:25:17;;;;;;;;;;;;;;;29.48;25.59;100682.81;105355;1297;59054;-86
2023/06/09 14:28:04;;;;;;;;;;;;;;;29.48;25.56;100672.66;105389;1297;59344;-86
2023/06/09 14:30:49;;;;;;;;;;;;;;;29.47;25.64;100669.61;105249;1297;73920;-86
2023/06/09 14:33:35;;;;;;;;;;;;;;;29.47;25.73;100665.79;105368;1297;68965;-86
2023/06/09 14:36:21;;;;;;;;;;;;;;;29.51;25.75;100668.86;105289;1297;71404;-86
2023/06/09 14:39:09;;;;;;;;;;;;;;;29.49;25.56;100663.31;105365;1297;59312;-86
2023/06/09 14:41:55;;;;;;;;;;;;;;;29.44;25.69;100662.38;105424;1299;59284;-86
2023/06/09 14:44:41;;;;;;;;;;;;;;;29.43;25.76;100659.07;105334;1298;74425;-86
2023/06/09 14:47:27;;;;;;;;;;;;;;;29.48;25.76;100660.20;105383;1297;67462;-86